createdAt,value
2022-12-23T00:01:52.099Z,76.96
2022-12-23T00:04:18.891Z,77.70
2022-12-23T00:06:51.453Z,78.06
2022-12-23T00:09:18.047Z,77.61
2022-12-23T00:11:44.641Z,76.81
2022-12-23T00:14:16.335Z,79.07
2022-12-23T00:16:47.164Z,77.96
2022-12-23T00:19:13.845Z,77.64
2022-12-23T00:21:40.468Z,78.39
2022-12-23T00:24:07.175Z,77.46
2022-12-23T00:26:33.832Z,79.23
2022-12-23T00:29:00.555Z,79.31
2022-12-23T00:31:27.266Z,80.07
2022-12-23T00:33:54.040Z,78.69
2022-12-23T00:36:30.123Z,78.80
2022-12-23T00:38:59.235Z,78.28
2022-12-23T00:41:26.090Z,75.85
2022-12-23T00:43:52.728Z,74.27
2022-12-23T00:46:19.453Z,74.95
2022-12-23T00:48:46.090Z,73.14
2022-12-23T00:51:12.719Z,73.64
2022-12-23T00:53:39.351Z,73.65
2022-12-23T00:56:06.165Z,73.02
2022-12-23T00:58:32.757Z,73.95
2022-12-23T01:00:59.497Z,74.89
2022-12-23T01:03:26.306Z,75.62
2022-12-23T01:05:57.961Z,75.22
2022-12-23T01:08:24.715Z,74.13
2022-12-23T01:10:54.094Z,73.61
2022-12-23T01:13:21.004Z,75.35
2022-12-23T01:15:47.866Z,74.73
2022-12-23T01:18:14.458Z,74.87
2022-12-23T01:20:41.345Z,75.43
2022-12-23T01:23:07.988Z,76.62
2022-12-23T01:25:34.654Z,75.89
2022-12-23T01:28:01.358Z,75.23
2022-12-23T01:30:28.023Z,76.65
2022-12-23T01:32:54.642Z,77.34
2022-12-23T01:35:21.258Z,77.70
2022-12-23T01:37:47.927Z,77.78
2022-12-23T01:40:14.613Z,78.53
2022-12-23T01:42:41.305Z,76.30
2022-12-23T01:45:30.030Z,78.29
2022-12-23T01:48:16.713Z,76.27
2022-12-23T01:50:48.962Z,75.78
2022-12-23T01:53:21.079Z,75.93
2022-12-23T01:55:59.490Z,76.44
2022-12-23T01:58:34.171Z,76.69
2022-12-23T02:01:01.956Z,77.55
2022-12-23T02:03:28.896Z,76.80
2022-12-23T02:05:57.137Z,76.79
2022-12-23T02:08:23.759Z,75.11
2022-12-23T02:10:59.420Z,74.76
2022-12-23T02:14:04.832Z,74.88
2022-12-23T02:16:44.977Z,75.86
2022-12-23T02:19:29.873Z,76.47
2022-12-23T02:22:37.786Z,77.11
2022-12-23T02:25:18.775Z,79.37
2022-12-23T02:28:36.409Z,78.40
2022-12-23T02:31:53.299Z,79.02
2022-12-23T02:34:49.913Z,78.82
2022-12-23T02:37:22.603Z,79.02
2022-12-23T02:40:05.339Z,79.46
2022-12-23T02:42:41.958Z,77.49
2022-12-23T02:45:20.563Z,78.38
2022-12-23T02:48:04.308Z,77.47
2022-12-23T02:50:38.348Z,78.75
2022-12-23T02:53:15.840Z,78.25
2022-12-23T02:55:48.542Z,78.17
2022-12-23T02:58:20.793Z,78.17
2022-12-23T03:00:49.785Z,77.80
2022-12-23T03:03:16.481Z,79.46
2022-12-23T03:05:47.738Z,78.49
2022-12-23T03:08:26.282Z,76.55
2022-12-23T03:11:01.527Z,75.91
2022-12-23T03:13:28.094Z,77.24
2022-12-23T03:16:20.551Z,77.75
2022-12-23T03:19:02.331Z,77.05
2022-12-23T03:21:47.544Z,76.81
2022-12-23T03:24:36.849Z,77.59
2022-12-23T03:27:15.492Z,75.38
2022-12-23T03:30:04.297Z,75.12
2022-12-23T03:32:37.675Z,73.81
2022-12-23T03:35:10.325Z,74.17
2022-12-23T03:37:44.121Z,73.26
2022-12-23T03:40:28.377Z,72.03
2022-12-23T03:43:19.084Z,74.04
2022-12-23T03:45:55.242Z,74.48
2022-12-23T03:48:32.190Z,73.09
2022-12-23T03:51:11.580Z,73.72
2022-12-23T03:53:51.301Z,75.26
2022-12-23T03:56:28.285Z,74.15
2022-12-23T03:59:00.677Z,73.60
2022-12-23T04:01:43.408Z,71.95
2022-12-23T04:04:36.259Z,73.90
2022-12-23T04:07:15.804Z,73.47
2022-12-23T04:09:44.113Z,74.61
2022-12-23T04:12:15.010Z,74.13
2022-12-23T04:14:56.779Z,72.72
2022-12-23T04:17:43.449Z,71.92
2022-12-23T04:20:30.138Z,71.59
2022-12-23T04:22:56.811Z,72.46
2022-12-23T04:25:23.400Z,73.13
2022-12-23T04:27:50.028Z,72.25
2022-12-23T04:30:16.683Z,72.38
2022-12-23T04:32:43.425Z,71.69
2022-12-23T04:35:11.104Z,71.58
2022-12-23T04:37:38.817Z,70.88
2022-12-23T04:40:06.564Z,70.96
2022-12-23T04:42:33.167Z,69.85
2022-12-23T04:44:59.786Z,70.39
2022-12-23T04:47:26.719Z,70.55
2022-12-23T04:49:53.465Z,70.90
2022-12-23T04:52:20.128Z,72.35
2022-12-23T04:54:46.771Z,73.61
2022-12-23T04:57:13.882Z,74.92
2022-12-23T04:59:40.551Z,73.80
2022-12-23T05:02:07.914Z,73.55
2022-12-23T05:04:34.923Z,74.01
2022-12-23T05:07:01.734Z,72.87
2022-12-23T05:09:28.372Z,73.21
2022-12-23T05:11:54.970Z,74.47
2022-12-23T05:14:21.619Z,74.19
2022-12-23T05:16:48.264Z,74.76
2022-12-23T05:19:15.737Z,74.46
2022-12-23T05:21:43.589Z,73.09
2022-12-23T05:24:10.301Z,74.10
2022-12-23T05:26:37.068Z,74.67
2022-12-23T05:29:03.706Z,75.69
2022-12-23T05:31:30.518Z,75.37
2022-12-23T05:34:02.311Z,74.26
2022-12-23T05:36:33.121Z,74.70
2022-12-23T05:38:59.764Z,74.21
2022-12-23T05:41:29.623Z,73.35
2022-12-23T05:47:45.965Z,76.43
2022-12-23T05:50:12.907Z,75.78
2022-12-23T05:52:39.579Z,74.23
2022-12-23T05:55:06.864Z,73.97
2022-12-23T05:57:36.419Z,76.07
2022-12-23T06:00:04.222Z,74.83
2022-12-23T06:02:31.324Z,74.43
2022-12-23T06:04:58.050Z,75.41
2022-12-23T06:07:24.768Z,74.47
2022-12-23T06:09:54.384Z,73.43
2022-12-23T06:12:58.109Z,72.96
2022-12-23T06:15:24.725Z,72.88
2022-12-23T06:17:51.417Z,71.67
2022-12-23T06:20:20.805Z,74.42
2022-12-23T06:22:47.808Z,73.65
2022-12-23T06:25:14.852Z,72.49
2022-12-23T06:27:42.537Z,71.93
2022-12-23T06:30:09.703Z,72.25
2022-12-23T06:32:38.903Z,73.42
2022-12-23T06:35:07.324Z,73.77
2022-12-23T06:37:34.569Z,72.32
2022-12-23T06:40:01.223Z,73.93
2022-12-23T06:42:27.849Z,73.57
2022-12-23T06:44:54.469Z,72.35
2022-12-23T06:47:21.164Z,72.25
2022-12-23T06:49:47.801Z,72.60
2022-12-23T06:52:14.491Z,74.08
2022-12-23T06:54:41.154Z,75.29
2022-12-23T06:57:07.871Z,73.31
2022-12-23T06:59:36.207Z,73.13
2022-12-23T07:02:03.739Z,71.66
2022-12-23T07:04:30.659Z,72.36
2022-12-23T07:06:57.490Z,71.00
2022-12-23T07:09:24.275Z,71.08
2022-12-23T07:11:50.937Z,70.84
2022-12-23T07:14:17.548Z,72.59
2022-12-23T07:16:44.327Z,74.47
2022-12-23T07:19:11.043Z,72.41
2022-12-23T07:21:37.666Z,71.50
2022-12-23T07:24:05.147Z,73.05
2022-12-23T07:26:32.096Z,71.54
2022-12-23T07:28:58.802Z,70.35
2022-12-23T07:31:25.565Z,71.90
2022-12-23T07:33:52.298Z,71.73
2022-12-23T07:36:19.005Z,71.41
2022-12-23T07:38:49.575Z,70.93
2022-12-23T07:41:16.405Z,71.25
2022-12-23T07:43:46.265Z,70.70
2022-12-23T07:46:15.639Z,70.25
2022-12-23T07:48:48.017Z,70.32
2022-12-23T07:51:14.755Z,70.90
2022-12-23T07:53:41.390Z,72.20
2022-12-23T07:56:08.307Z,72.94
2022-12-23T07:58:35.016Z,71.55
2022-12-23T08:01:08.954Z,72.45
2022-12-23T08:03:37.023Z,72.49
2022-12-23T08:06:09.554Z,70.95
2022-12-23T08:08:37.408Z,77.19
2022-12-23T08:11:06.601Z,77.14
2022-12-23T08:13:36.753Z,80.70
2022-12-23T08:16:05.682Z,80.63
2022-12-23T08:18:35.317Z,78.58
2022-12-23T08:21:20.156Z,81.01
2022-12-23T08:23:47.928Z,82.29
2022-12-23T08:26:21.399Z,83.12
2022-12-23T08:28:50.069Z,81.77
2022-12-23T08:31:23.100Z,82.25
2022-12-23T08:33:54.232Z,82.62
2022-12-23T08:36:23.878Z,83.43
2022-12-23T08:38:54.147Z,84.37
2022-12-23T08:41:27.694Z,83.22
2022-12-23T08:43:55.173Z,81.49
2022-12-23T08:46:22.666Z,84.81
2022-12-23T08:48:50.315Z,83.43
2022-12-23T08:51:20.115Z,81.10
2022-12-23T08:53:48.138Z,80.28
2022-12-23T08:56:23.192Z,82.52
2022-12-23T08:58:53.062Z,81.57
2022-12-23T09:01:22.247Z,77.36
2022-12-23T09:03:49.170Z,75.67
2022-12-23T09:06:28.273Z,74.35
2022-12-23T09:08:56.455Z,75.01
2022-12-23T09:11:26.287Z,73.46
2022-12-23T09:13:54.502Z,73.61
2022-12-23T09:16:21.949Z,74.87
2022-12-23T09:18:48.805Z,74.13
2022-12-23T09:21:19.945Z,75.38
2022-12-23T09:23:47.934Z,75.60
2022-12-23T09:26:20.998Z,74.05
2022-12-23T09:28:47.593Z,73.05
2022-12-23T09:31:15.044Z,74.31
2022-12-23T09:33:42.563Z,74.79
2022-12-23T09:36:09.263Z,76.60
2022-12-23T09:38:36.110Z,76.45
2022-12-23T09:41:39.320Z,76.08
2022-12-23T09:44:22.959Z,76.93
2022-12-23T09:46:57.222Z,78.26
2022-12-23T09:49:24.141Z,78.47
2022-12-23T09:51:57.470Z,76.33
2022-12-23T09:54:33.207Z,74.74
2022-12-23T09:57:02.765Z,73.39
2022-12-23T09:59:41.573Z,72.49
2022-12-23T10:02:11.369Z,73.63
2022-12-23T10:04:50.639Z,74.50
2022-12-23T10:07:23.750Z,75.95
2022-12-23T10:09:56.119Z,74.74
2022-12-23T10:12:28.085Z,75.12
2022-12-23T10:15:01.615Z,73.12
2022-12-23T10:17:52.636Z,72.08
2022-12-23T10:20:33.760Z,73.12
2022-12-23T10:23:00.701Z,72.00
2022-12-23T10:25:39.180Z,73.52
2022-12-23T10:28:05.900Z,73.05
2022-12-23T10:31:11.227Z,71.72
2022-12-23T10:33:49.158Z,73.15
2022-12-23T10:36:45.011Z,71.50
2022-12-23T10:39:30.799Z,72.08
2022-12-23T10:42:43.742Z,71.30
2022-12-23T10:45:33.800Z,73.00
2022-12-23T10:48:21.358Z,73.67
2022-12-23T10:51:06.342Z,74.68
2022-12-23T10:53:32.968Z,75.46
2022-12-23T10:56:01.355Z,74.70
2022-12-23T10:58:28.225Z,74.53
2022-12-23T11:00:59.316Z,74.22
2022-12-23T11:03:34.849Z,73.59
2022-12-23T11:06:03.165Z,72.80
2022-12-23T11:08:31.703Z,71.57
2022-12-23T11:11:00.532Z,70.55
2022-12-23T11:13:40.246Z,73.64
2022-12-23T11:16:28.705Z,72.83
2022-12-23T11:19:05.778Z,71.42
2022-12-23T11:21:33.654Z,72.85
2022-12-23T11:24:16.458Z,72.52
2022-12-23T11:26:46.357Z,73.92
2022-12-23T11:29:28.888Z,74.34
2022-12-23T11:31:56.389Z,76.56
2022-12-23T11:34:27.121Z,76.50
2022-12-23T11:37:07.004Z,76.59
2022-12-23T11:39:37.763Z,78.51
2022-12-23T11:42:12.730Z,80.64
2022-12-23T11:44:49.543Z,82.10
2022-12-23T11:47:22.185Z,81.57
2022-12-23T11:49:58.988Z,82.31
2022-12-23T11:52:34.511Z,82.79
2022-12-23T11:55:05.689Z,83.91
2022-12-23T11:57:48.985Z,83.77
2022-12-23T12:00:22.375Z,84.64
2022-12-23T12:02:55.035Z,84.83
2022-12-23T12:05:39.561Z,85.15
2022-12-23T12:08:14.505Z,84.50
2022-12-23T12:10:42.947Z,85.00
2022-12-23T12:13:23.715Z,84.01
2022-12-23T12:16:27.553Z,86.05
2022-12-23T12:19:02.625Z,85.43
2022-12-23T12:21:37.325Z,86.68
2022-12-23T12:24:19.600Z,85.64
2022-12-23T12:26:53.746Z,86.04
2022-12-23T12:29:45.342Z,86.25
2022-12-23T12:32:22.607Z,85.81
2022-12-23T12:34:57.127Z,84.61
2022-12-23T12:37:51.327Z,84.23
2022-12-23T12:40:59.683Z,81.76
2022-12-23T12:43:46.441Z,81.55
2022-12-23T12:46:34.136Z,81.53
2022-12-23T12:49:16.397Z,81.57
2022-12-23T12:51:43.027Z,80.17
2022-12-23T12:54:45.570Z,80.82
2022-12-23T12:58:05.430Z,83.49
2022-12-23T13:00:47.551Z,81.56
2022-12-23T13:03:29.674Z,80.39
2022-12-23T13:06:15.849Z,80.48
2022-12-23T13:09:04.755Z,80.78
2022-12-23T13:11:50.476Z,79.27
2022-12-23T13:14:38.155Z,79.08
2022-12-23T13:17:31.718Z,78.81
2022-12-23T13:20:17.107Z,76.96
2022-12-23T13:22:48.708Z,75.63
2022-12-23T13:25:21.068Z,76.17
2022-12-23T13:36:50.303Z,75.21
2022-12-23T13:39:29.119Z,74.86
2022-12-23T13:42:05.590Z,74.79
2022-12-23T13:44:34.943Z,75.19
2022-12-23T13:47:35.239Z,74.93
2022-12-23T13:50:15.835Z,74.16
2022-12-23T13:52:45.139Z,75.46
2022-12-23T13:55:38.984Z,74.49
2022-12-23T13:58:18.319Z,73.31
2022-12-23T14:00:45.315Z,72.30
2022-12-23T14:03:11.917Z,74.46
2022-12-23T14:05:44.694Z,75.84
2022-12-23T14:08:20.340Z,76.11
2022-12-23T14:11:14.879Z,73.74
2022-12-23T14:13:50.508Z,74.53
2022-12-23T14:16:40.946Z,76.15
2022-12-23T14:19:23.108Z,78.01
2022-12-23T14:22:12.776Z,79.55
2022-12-23T14:25:17.209Z,80.59
2022-12-23T14:27:49.534Z,78.61
2022-12-23T14:30:37.957Z,77.79
2022-12-23T14:33:15.154Z,78.66
2022-12-23T14:35:42.814Z,76.23
2022-12-23T14:38:15.637Z,76.78
2022-12-23T14:40:42.266Z,77.31
2022-12-23T14:43:33.505Z,76.28
2022-12-23T14:46:03.376Z,77.30
2022-12-23T14:48:36.129Z,77.30
2022-12-23T14:51:09.662Z,76.95
2022-12-23T14:54:16.413Z,78.22
2022-12-23T14:57:00.152Z,76.94
2022-12-23T14:59:35.742Z,79.89
2022-12-23T15:02:16.338Z,81.10
2022-12-23T15:04:53.132Z,81.96
2022-12-23T15:07:38.978Z,82.18
2022-12-23T15:10:16.978Z,81.68
2022-12-23T15:12:49.330Z,81.74
2022-12-23T15:15:20.963Z,79.96
2022-12-23T15:17:49.098Z,79.73
2022-12-23T15:20:21.088Z,79.92
2022-12-23T15:22:48.370Z,79.47
2022-12-23T15:25:26.788Z,80.61
2022-12-23T15:28:01.518Z,79.77
2022-12-23T15:30:37.265Z,77.42
2022-12-23T15:33:27.850Z,80.26
2022-12-23T15:35:54.791Z,79.85
2022-12-23T15:38:27.416Z,77.37
2022-12-23T15:41:05.667Z,77.48
2022-12-23T15:43:32.751Z,78.50
2022-12-23T15:46:13.827Z,78.85
2022-12-23T15:48:41.211Z,78.36
2022-12-23T15:51:21.933Z,77.65
2022-12-23T15:54:01.749Z,79.80
2022-12-23T15:56:34.285Z,78.54
2022-12-23T15:59:04.053Z,80.44
2022-12-23T16:01:40.100Z,78.88
2022-12-23T16:04:07.474Z,78.87
2022-12-23T16:06:36.263Z,78.74
2022-12-23T16:09:05.338Z,77.83
2022-12-23T16:12:01.429Z,80.69
2022-12-23T16:14:31.074Z,77.96
2022-12-23T16:17:12.551Z,79.88
2022-12-23T16:19:46.665Z,78.87
2022-12-23T16:22:30.463Z,77.59
2022-12-23T16:25:12.179Z,76.99
2022-12-23T16:27:49.005Z,77.54
2022-12-23T16:30:22.313Z,76.27
2022-12-23T16:32:53.360Z,74.82
2022-12-23T16:35:37.797Z,77.14
2022-12-23T16:38:13.037Z,76.37
2022-12-23T16:40:40.842Z,77.98
2022-12-23T16:43:07.883Z,77.26
2022-12-23T16:45:36.354Z,79.15
2022-12-23T16:48:31.689Z,80.02
2022-12-23T16:51:00.430Z,80.57
2022-12-23T16:53:27.558Z,80.53
2022-12-23T16:56:00.240Z,78.35
2022-12-23T16:58:27.665Z,80.06
2022-12-23T17:00:54.793Z,79.79
2022-12-23T17:03:21.712Z,80.51
2022-12-23T17:05:49.362Z,79.82
2022-12-23T17:08:15.977Z,82.74
2022-12-23T17:10:44.780Z,80.88
2022-12-23T17:13:16.005Z,79.22
2022-12-23T17:15:42.667Z,78.51
2022-12-23T17:18:14.310Z,79.88
2022-12-23T17:20:43.239Z,80.40
2022-12-23T17:23:26.469Z,80.23
2022-12-23T17:25:53.306Z,78.62
2022-12-23T17:28:21.368Z,79.52
2022-12-23T17:30:54.823Z,81.10
2022-12-23T17:33:27.564Z,81.61
2022-12-23T17:35:54.302Z,81.13
2022-12-23T17:38:21.360Z,81.80
2022-12-23T17:40:49.086Z,82.54
2022-12-23T17:43:17.577Z,82.58
2022-12-23T17:45:45.664Z,81.11
2022-12-23T17:48:20.167Z,79.99
2022-12-23T17:50:48.110Z,81.40
2022-12-23T17:53:19.240Z,83.03
2022-12-23T17:55:46.017Z,84.80
2022-12-23T17:58:15.284Z,86.41
2022-12-23T18:00:41.941Z,86.41
2022-12-23T18:03:22.218Z,87.39
2022-12-23T18:05:48.822Z,87.34
2022-12-23T18:08:15.426Z,89.40
2022-12-23T18:10:42.418Z,88.11
2022-12-23T18:13:15.579Z,87.96
2022-12-23T18:15:44.295Z,87.95
2022-12-23T18:18:30.161Z,86.19
2022-12-23T18:21:02.498Z,86.18
2022-12-23T18:23:32.164Z,84.72
2022-12-23T18:26:00.241Z,82.96
2022-12-23T18:28:27.495Z,84.46
2022-12-23T18:30:58.267Z,82.90
2022-12-23T18:33:24.983Z,83.63
2022-12-23T18:35:51.842Z,83.99
2022-12-23T18:38:21.286Z,83.58
2022-12-23T18:40:47.882Z,85.00
2022-12-23T18:43:20.459Z,84.69
2022-12-23T18:45:52.778Z,82.94
2022-12-23T18:48:20.104Z,82.71
2022-12-23T18:50:47.011Z,80.61
2022-12-23T18:53:24.403Z,79.85
2022-12-23T18:55:53.244Z,79.87
2022-12-23T18:58:20.564Z,79.54
2022-12-23T19:00:49.372Z,79.27
2022-12-23T19:03:27.133Z,79.10
2022-12-23T19:05:55.888Z,79.73
2022-12-23T19:08:27.093Z,77.87
2022-12-23T19:10:55.153Z,80.25
2022-12-23T19:13:22.777Z,79.66
2022-12-23T19:15:50.007Z,80.12
2022-12-23T19:18:19.781Z,78.56
2022-12-23T19:20:47.793Z,79.29
2022-12-23T19:23:16.055Z,78.25
2022-12-23T19:25:49.185Z,76.83
2022-12-23T19:28:22.566Z,76.57
2022-12-23T19:30:49.390Z,76.41
2022-12-23T19:33:16.260Z,75.96
2022-12-23T19:35:43.592Z,74.38
2022-12-23T19:38:11.486Z,74.67
2022-12-23T19:40:38.504Z,73.83
2022-12-23T19:43:05.177Z,72.13
2022-12-23T19:45:32.060Z,72.73
2022-12-23T19:47:58.771Z,73.26
2022-12-23T19:50:25.455Z,73.35
2022-12-23T19:52:52.328Z,74.38
2022-12-23T19:55:19.251Z,76.72
2022-12-23T19:57:45.939Z,77.84
2022-12-23T20:00:13.030Z,76.63
2022-12-23T20:02:39.680Z,74.22
2022-12-23T20:05:06.663Z,72.70
2022-12-23T20:07:35.331Z,73.02
2022-12-23T20:10:03.622Z,74.05
2022-12-23T20:12:30.221Z,75.80
2022-12-23T20:14:56.955Z,75.42
2022-12-23T20:17:23.803Z,76.98
2022-12-23T20:19:50.411Z,77.19
2022-12-23T20:22:17.104Z,75.31
2022-12-23T20:24:43.787Z,76.44
2022-12-23T20:27:12.529Z,75.22
2022-12-23T20:29:40.625Z,75.75
2022-12-23T20:32:07.258Z,74.09
2022-12-23T20:34:39.223Z,73.45
2022-12-23T20:37:06.887Z,74.10
2022-12-23T20:39:33.547Z,72.48
2022-12-23T20:42:00.278Z,73.18
2022-12-23T20:44:36.100Z,71.92
2022-12-23T20:47:05.875Z,72.20
2022-12-23T20:49:33.521Z,72.78
2022-12-23T20:52:00.281Z,71.77
2022-12-23T20:54:32.590Z,72.83
2022-12-23T20:57:00.715Z,73.15
2022-12-23T20:59:27.447Z,71.99
2022-12-23T21:01:54.204Z,74.08
2022-12-23T21:04:20.895Z,72.80
2022-12-23T21:06:47.485Z,73.39
2022-12-23T21:09:15.796Z,73.07
2022-12-23T21:11:45.663Z,74.25
2022-12-23T21:14:13.338Z,76.76
2022-12-23T21:16:40.970Z,74.35
2022-12-23T21:19:12.983Z,73.30
2022-12-23T21:21:39.898Z,74.18
2022-12-23T21:24:07.107Z,76.28
2022-12-23T21:26:34.662Z,77.35
2022-12-23T21:29:04.747Z,75.58
2022-12-23T21:31:34.068Z,73.71
2022-12-23T21:34:00.934Z,74.84
2022-12-23T21:36:31.780Z,75.14
2022-12-23T21:39:00.127Z,75.24
2022-12-23T21:41:30.661Z,74.46
2022-12-23T21:44:02.058Z,74.85
2022-12-23T21:46:29.443Z,76.03
2022-12-23T21:48:58.538Z,77.09
2022-12-23T21:51:39.094Z,78.06
2022-12-23T21:54:08.328Z,79.35
2022-12-23T21:56:36.008Z,80.87
2022-12-23T21:59:07.273Z,80.05
2022-12-23T22:01:34.251Z,80.78
2022-12-23T22:04:07.587Z,78.89
2022-12-23T22:06:38.537Z,78.78
2022-12-23T22:09:08.150Z,78.12
2022-12-23T22:11:36.924Z,77.49
2022-12-23T22:14:06.549Z,77.29
2022-12-23T22:16:37.146Z,77.87
2022-12-23T22:19:06.338Z,78.35
2022-12-23T22:21:34.211Z,78.68
2022-12-23T22:24:01.693Z,79.53
2022-12-23T22:26:31.220Z,78.57
2022-12-23T22:29:01.232Z,79.83
2022-12-23T22:31:39.312Z,79.58
2022-12-23T22:34:07.310Z,80.41
2022-12-23T22:36:34.474Z,80.44
2022-12-23T22:39:02.826Z,79.43
2022-12-23T22:41:30.446Z,80.27
2022-12-23T22:43:58.486Z,80.50
2022-12-23T22:46:25.779Z,80.58
2022-12-23T22:48:52.907Z,80.84
2022-12-23T22:51:31.106Z,80.18
2022-12-23T22:53:58.408Z,80.33
2022-12-23T22:56:25.768Z,80.48
2022-12-23T22:58:53.775Z,80.68
2022-12-23T23:01:26.488Z,81.85
2022-12-23T23:03:55.233Z,82.08
2022-12-23T23:06:22.213Z,83.52
2022-12-23T23:08:49.129Z,82.66
2022-12-23T23:11:15.868Z,80.96
2022-12-23T23:13:42.542Z,79.93
2022-12-23T23:16:09.274Z,81.03
2022-12-23T23:18:35.895Z,82.14
2022-12-23T23:21:02.508Z,80.87
2022-12-23T23:23:29.240Z,80.20
2022-12-23T23:25:55.926Z,80.75
2022-12-23T23:28:22.619Z,79.35
2022-12-23T23:31:03.584Z,80.31
2022-12-23T23:33:36.137Z,79.07
2022-12-23T23:36:02.805Z,80.99
2022-12-23T23:38:29.814Z,81.77
2022-12-23T23:40:58.171Z,82.15
2022-12-23T23:43:25.444Z,81.40
2022-12-23T23:45:52.077Z,81.95
2022-12-23T23:48:19.609Z,81.25
2022-12-23T23:50:47.400Z,80.59
2022-12-23T23:53:15.795Z,80.38
2022-12-23T23:55:42.613Z,79.35
2022-12-23T23:58:11.425Z,80.43
